sensor_id;sensor_type;location;lat;lon;timestamp;pressure;altitude;pressure_sealevel;temperature;humidity
14293;BME280;62290;59.420;17.842;2023-07-20T00:01:13;99885.97;;;25.45;36.34
14293;BME280;62290;59.420;17.842;2023-07-20T00:03:41;99881.59;;;25.44;36.43
14293;BME280;62290;59.420;17.842;2023-07-20T00:06:09;99878.03;;;25.43;36.79
14293;BME280;62290;59.420;17.842;2023-07-20T00:08:38;99881.59;;;25.44;36.62
14293;BME280;62290;59.420;17.842;2023-07-20T00:11:06;99876.00;;;25.37;36.53
14293;BME280;62290;59.420;17.842;2023-07-20T00:13:34;99865.91;;;25.31;36.46
14293;BME280;62290;59.420;17.842;2023-07-20T00:16:02;99880.06;;;25.41;36.58
14293;BME280;62290;59.420;17.842;2023-07-20T00:18:31;99885.63;;;25.40;36.20
14293;BME280;62290;59.420;17.842;2023-07-20T00:20:59;99888.31;;;25.40;36.38
14293;BME280;62290;59.420;17.842;2023-07-20T00:23:28;99876.84;;;25.38;36.85
14293;BME280;62290;59.420;17.842;2023-07-20T00:25:58;99875.31;;;25.35;36.75
14293;BME280;62290;59.420;17.842;2023-07-20T00:28:25;99878.88;;;25.36;36.63
14293;BME280;62290;59.420;17.842;2023-07-20T00:30:54;99875.31;;;25.35;36.60
14293;BME280;62290;59.420;17.842;2023-07-20T00:33:22;99875.31;;;25.35;36.77
14293;BME280;62290;59.420;17.842;2023-07-20T00:35:50;99876.19;;;25.36;36.79
14293;BME280;62290;59.420;17.842;2023-07-20T00:38:19;99876.31;;;25.34;36.86
14293;BME280;62290;59.420;17.842;2023-07-20T00:40:47;99876.31;;;25.34;36.45
14293;BME280;62290;59.420;17.842;2023-07-20T00:43:18;99879.03;;;25.34;36.43
14293;BME280;62290;59.420;17.842;2023-07-20T00:45:47;99877.69;;;25.30;36.96
14293;BME280;62290;59.420;17.842;2023-07-20T00:48:17;99880.06;;;25.33;36.41
14293;BME280;62290;59.420;17.842;2023-07-20T00:50:45;99879.38;;;25.31;36.89
14293;BME280;62290;59.420;17.842;2023-07-20T00:53:15;99877.50;;;25.32;36.70
14293;BME280;62290;59.420;17.842;2023-07-20T00:55:43;99882.91;;;25.32;36.68
14293;BME280;62290;59.420;17.842;2023-07-20T00:58:11;99889.31;;;25.31;36.68
14293;BME280;62290;59.420;17.842;2023-07-20T01:00:41;99886.63;;;25.31;36.83
14293;BME280;62290;59.420;17.842;2023-07-20T01:03:09;99892.00;;;25.31;36.99
14293;BME280;62290;59.420;17.842;2023-07-20T01:05:42;99887.47;;;25.31;36.64
14293;BME280;62290;59.420;17.842;2023-07-20T01:08:17;99884.91;;;25.30;36.46
14293;BME280;62290;59.420;17.842;2023-07-20T01:10:52;99882.22;;;25.30;36.87
14293;BME280;62290;59.420;17.842;2023-07-20T01:13:22;99887.78;;;25.28;36.94
14293;BME280;62290;59.420;17.842;2023-07-20T01:15:56;99873.97;;;25.23;36.91
14293;BME280;62290;59.420;17.842;2023-07-20T01:18:25;99885.09;;;25.28;36.99
14293;BME280;62290;59.420;17.842;2023-07-20T01:20:57;99883.25;;;25.29;36.76
14293;BME280;62290;59.420;17.842;2023-07-20T01:23:41;99877.84;;;25.29;36.57
14293;BME280;62290;59.420;17.842;2023-07-20T01:26:31;99877.00;;;25.28;37.04
14293;BME280;62290;59.420;17.842;2023-07-20T01:29:17;99875.31;;;25.27;36.46
14293;BME280;62290;59.420;17.842;2023-07-20T01:31:53;99874.47;;;25.27;36.64
14293;BME280;62290;59.420;17.842;2023-07-20T01:34:23;99877.16;;;25.27;36.91
14293;BME280;62290;59.420;17.842;2023-07-20T01:36:53;99884.44;;;25.26;36.46
14293;BME280;62290;59.420;17.842;2023-07-20T01:39:23;99879.19;;;25.25;36.97
14293;BME280;62290;59.420;17.842;2023-07-20T01:41:51;99871.41;;;25.22;36.71
14293;BME280;62290;59.420;17.842;2023-07-20T01:44:20;99875.63;;;25.24;36.60
14293;BME280;62290;59.420;17.842;2023-07-20T01:46:48;99871.25;;;25.23;36.77
14293;BME280;62290;59.420;17.842;2023-07-20T01:49:17;99866.03;;;25.22;36.91
14293;BME280;62290;59.420;17.842;2023-07-20T01:51:46;99869.75;;;25.21;36.76
14293;BME280;62290;59.420;17.842;2023-07-20T01:54:16;99865.53;;;25.18;36.73
14293;BME280;62290;59.420;17.842;2023-07-20T01:56:45;99873.28;;;25.21;36.78
14293;BME280;62290;59.420;17.842;2023-07-20T01:59:13;99871.41;;;25.22;36.89
14293;BME280;62290;59.420;17.842;2023-07-20T02:01:41;99867.38;;;25.17;37.03
14293;BME280;62290;59.420;17.842;2023-07-20T02:04:11;99868.03;;;25.20;36.68
14293;BME280;62290;59.420;17.842;2023-07-20T02:06:40;99863.66;;;25.18;36.95
14293;BME280;62290;59.420;17.842;2023-07-20T02:09:10;99845.25;;;25.06;36.61
14293;BME280;62290;59.420;17.842;2023-07-20T02:11:40;99856.59;;;25.17;37.06
14293;BME280;62290;59.420;17.842;2023-07-20T02:14:08;99857.44;;;25.18;36.72
14293;BME280;62290;59.420;17.842;2023-07-20T02:16:36;99860.28;;;25.16;36.82
14293;BME280;62290;59.420;17.842;2023-07-20T02:19:04;99857.59;;;25.16;37.05
14293;BME280;62290;59.420;17.842;2023-07-20T02:21:33;99854.03;;;25.16;36.85
14293;BME280;62290;59.420;17.842;2023-07-20T02:24:03;99853.03;;;25.17;37.12
14293;BME280;62290;59.420;17.842;2023-07-20T02:26:32;99846.78;;;25.16;37.17
14293;BME280;62290;59.420;17.842;2023-07-20T02:29:00;99860.28;;;25.16;37.30
14293;BME280;62290;59.420;17.842;2023-07-20T02:31:29;99858.59;;;25.15;36.71
14293;BME280;62290;59.420;17.842;2023-07-20T02:33:57;99854.22;;;25.14;36.96
14293;BME280;62290;59.420;17.842;2023-07-20T02:36:26;99858.75;;;25.14;37.23
14293;BME280;62290;59.420;17.842;2023-07-20T02:38:54;99855.91;;;25.15;36.89
14293;BME280;62290;59.420;17.842;2023-07-20T02:41:24;99855.91;;;25.15;37.10
14293;BME280;62290;59.420;17.842;2023-07-20T02:43:52;99860.28;;;25.16;36.75
14293;BME280;62290;59.420;17.842;2023-07-20T02:46:19;99856.91;;;25.14;36.83
14293;BME280;62290;59.420;17.842;2023-07-20T02:48:48;99859.59;;;25.14;36.93
14293;BME280;62290;59.420;17.842;2023-07-20T02:51:16;99859.59;;;25.14;37.17
14293;BME280;62290;59.420;17.842;2023-07-20T02:53:44;99862.31;;;25.14;37.22
14293;BME280;62290;59.420;17.842;2023-07-20T02:56:12;99848.47;;;25.09;37.11
14293;BME280;62290;59.420;17.842;2023-07-20T02:58:42;99853.22;;;25.15;37.18
14293;BME280;62290;59.420;17.842;2023-07-20T03:01:13;99857.75;;;25.15;36.96
14293;BME280;62290;59.420;17.842;2023-07-20T03:03:42;99860.47;;;25.15;36.87
14293;BME280;62290;59.420;17.842;2023-07-20T03:06:13;99856.06;;;25.14;37.20
14293;BME280;62290;59.420;17.842;2023-07-20T03:08:42;99841.38;;;25.08;36.90
14293;BME280;62290;59.420;17.842;2023-07-20T03:11:15;99852.38;;;25.15;36.94
14293;BME280;62290;59.420;17.842;2023-07-20T03:13:44;99840.56;;;25.08;37.19
14293;BME280;62290;59.420;17.842;2023-07-20T03:16:18;99860.47;;;25.15;36.91
14293;BME280;62290;59.420;17.842;2023-07-20T03:18:47;99850.53;;;25.15;36.77
14293;BME280;62290;59.420;17.842;2023-07-20T03:21:15;99849.50;;;25.16;37.04
14293;BME280;62290;59.420;17.842;2023-07-20T03:23:43;99861.81;;;25.19;37.27
14293;BME280;62290;59.420;17.842;2023-07-20T03:26:12;99858.09;;;25.20;36.98
14293;BME280;62290;59.420;17.842;2023-07-20T03:28:40;99854.41;;;25.21;37.25
14293;BME280;62290;59.420;17.842;2023-07-20T03:31:11;99845.16;;;25.24;36.91
14293;BME280;62290;59.420;17.842;2023-07-20T03:33:40;99855.56;;;25.27;36.77
14293;BME280;62290;59.420;17.842;2023-07-20T03:36:09;99859.66;;;25.31;36.92
14293;BME280;62290;59.420;17.842;2023-07-20T03:38:37;99861.84;;;25.35;36.61
14293;BME280;62290;59.420;17.842;2023-07-20T03:41:05;99866.72;;;25.40;37.07
14293;BME280;62290;59.420;17.842;2023-07-20T03:43:34;99853.78;;;25.43;36.47
14293;BME280;62290;59.420;17.842;2023-07-20T03:46:02;99856.00;;;25.48;36.60
14293;BME280;62290;59.420;17.842;2023-07-20T03:48:35;99858.22;;;25.52;36.96
14293;BME280;62290;59.420;17.842;2023-07-20T03:51:03;99861.25;;;25.57;36.90
14293;BME280;62290;59.420;17.842;2023-07-20T03:53:31;99857.03;;;25.63;36.80
14293;BME280;62290;59.420;17.842;2023-07-20T03:55:59;99865.47;;;25.68;36.77
14293;BME280;62290;59.420;17.842;2023-07-20T03:58:28;99860.56;;;25.71;36.26
14293;BME280;62290;59.420;17.842;2023-07-20T04:00:57;99862.28;;;25.72;36.66
14293;BME280;62290;59.420;17.842;2023-07-20T04:03:25;99862.09;;;25.74;36.15
14293;BME280;62290;59.420;17.842;2023-07-20T04:05:55;99864.47;;;25.77;36.16
14293;BME280;62290;59.420;17.842;2023-07-20T04:08:24;99865.13;;;25.79;36.14
14293;BME280;62290;59.420;17.842;2023-07-20T04:10:52;99862.94;;;25.83;36.04
14293;BME280;62290;59.420;17.842;2023-07-20T04:13:21;99860.59;;;25.88;35.98
14293;BME280;62290;59.420;17.842;2023-07-20T04:15:49;99868.16;;;25.92;35.98
14293;BME280;62290;59.420;17.842;2023-07-20T04:18:17;99859.72;;;25.95;36.19
14293;BME280;62290;59.420;17.842;2023-07-20T04:20:45;99861.09;;;25.99;35.72
14293;BME280;62290;59.420;17.842;2023-07-20T04:23:15;99859.72;;;26.03;35.79
14293;BME280;62290;59.420;17.842;2023-07-20T04:25:44;99856.69;;;26.06;35.63
14293;BME280;62290;59.420;17.842;2023-07-20T04:28:13;99860.91;;;26.09;36.11
14293;BME280;62290;59.420;17.842;2023-07-20T04:30:48;99854.19;;;26.13;35.91
14293;BME280;62290;59.420;17.842;2023-07-20T04:33:17;99856.53;;;26.16;35.55
14293;BME280;62290;59.420;17.842;2023-07-20T04:35:49;99858.06;;;26.18;35.65
14293;BME280;62290;59.420;17.842;2023-07-20T04:38:30;99852.50;;;26.20;35.76
14293;BME280;62290;59.420;17.842;2023-07-20T04:41:06;99867.16;;;26.25;35.33
14293;BME280;62290;59.420;17.842;2023-07-20T04:43:41;99853.31;;;26.20;35.52
14293;BME280;62290;59.420;17.842;2023-07-20T04:46:10;99863.09;;;26.29;35.69
14293;BME280;62290;59.420;17.842;2023-07-20T04:48:38;99850.94;;;26.33;35.24
14293;BME280;62290;59.420;17.842;2023-07-20T04:51:07;99857.03;;;26.35;35.66
14293;BME280;62290;59.420;17.842;2023-07-20T04:53:38;99846.69;;;26.39;35.11
14293;BME280;62290;59.420;17.842;2023-07-20T04:56:08;99851.75;;;26.42;35.29
14293;BME280;62290;59.420;17.842;2023-07-20T04:58:37;99849.56;;;26.46;35.54
14293;BME280;62290;59.420;17.842;2023-07-20T05:01:05;99859.19;;;26.48;35.46
14293;BME280;62290;59.420;17.842;2023-07-20T05:03:35;99847.00;;;26.52;35.25
14293;BME280;62290;59.420;17.842;2023-07-20T05:06:04;99852.06;;;26.55;35.00
14293;BME280;62290;59.420;17.842;2023-07-20T05:08:32;99850.88;;;26.58;35.03
14293;BME280;62290;59.420;17.842;2023-07-20T05:11:02;99847.31;;;26.57;34.86
14293;BME280;62290;59.420;17.842;2023-07-20T05:13:30;99853.22;;;26.61;35.19
14293;BME280;62290;59.420;17.842;2023-07-20T05:15:58;99860.16;;;26.63;35.06
14293;BME280;62290;59.420;17.842;2023-07-20T05:18:26;99855.09;;;26.60;34.99
14293;BME280;62290;59.420;17.842;2023-07-20T05:20:54;99857.78;;;26.60;35.07
14293;BME280;62290;59.420;17.842;2023-07-20T05:23:22;99859.66;;;26.60;35.12
14293;BME280;62290;59.420;17.842;2023-07-20T05:25:54;99856.94;;;26.60;34.91
14293;BME280;62290;59.420;17.842;2023-07-20T05:28:24;99852.06;;;26.55;35.35
14293;BME280;62290;59.420;17.842;2023-07-20T05:30:53;99858.28;;;26.64;35.03
14293;BME280;62290;59.420;17.842;2023-07-20T05:33:21;99860.81;;;26.65;35.23
14293;BME280;62290;59.420;17.842;2023-07-20T05:35:49;99854.22;;;26.68;35.00
14293;BME280;62290;59.420;17.842;2023-07-20T05:38:17;99851.34;;;26.69;34.79
14293;BME280;62290;59.420;17.842;2023-07-20T05:40:45;99850.16;;;26.72;34.79
14293;BME280;62290;59.420;17.842;2023-07-20T05:43:14;99855.38;;;26.73;34.79
14293;BME280;62290;59.420;17.842;2023-07-20T05:45:43;99845.59;;;26.72;34.75
14293;BME280;62290;59.420;17.842;2023-07-20T05:48:12;99843.72;;;26.73;35.20
14293;BME280;62290;59.420;17.842;2023-07-20T05:50:41;99846.06;;;26.76;35.10
14293;BME280;62290;59.420;17.842;2023-07-20T05:53:10;99842.53;;;26.75;35.18
14293;BME280;62290;59.420;17.842;2023-07-20T05:55:38;99846.94;;;26.76;34.80
14293;BME280;62290;59.420;17.842;2023-07-20T05:58:06;99846.44;;;26.81;35.03
14293;BME280;62290;59.420;17.842;2023-07-20T06:00:35;99851.50;;;26.84;35.03
14293;BME280;62290;59.420;17.842;2023-07-20T06:03:04;99851.28;;;26.85;35.13
14293;BME280;62290;59.420;17.842;2023-07-20T06:05:32;99851.13;;;26.87;35.12
14293;BME280;62290;59.420;17.842;2023-07-20T06:08:00;99854.69;;;26.87;34.75
14293;BME280;62290;59.420;17.842;2023-07-20T06:10:28;99849.44;;;26.86;34.97
14293;BME280;62290;59.420;17.842;2023-07-20T06:12:56;99854.69;;;26.87;34.67
14293;BME280;62290;59.420;17.842;2023-07-20T06:15:26;99854.84;;;26.86;34.61
14293;BME280;62290;59.420;17.842;2023-07-20T06:17:54;99851.50;;;26.84;34.62
14293;BME280;62290;59.420;17.842;2023-07-20T06:20:26;99846.44;;;26.81;34.78
14293;BME280;62290;59.420;17.842;2023-07-20T06:22:54;99852.03;;;26.79;34.83
14293;BME280;62290;59.420;17.842;2023-07-20T06:25:22;99843.06;;;26.79;34.79
14293;BME280;62290;59.420;17.842;2023-07-20T06:27:50;99844.22;;;26.76;35.00
14293;BME280;62290;59.420;17.842;2023-07-20T06:30:19;99842.41;;;26.77;34.89
14293;BME280;62290;59.420;17.842;2023-07-20T06:32:47;99840.66;;;26.76;35.18
14293;BME280;62290;59.420;17.842;2023-07-20T06:35:15;99840.66;;;26.76;35.15
14293;BME280;62290;59.420;17.842;2023-07-20T06:37:45;99831.59;;;26.77;35.16
14293;BME280;62290;59.420;17.842;2023-07-20T06:40:13;99834.28;;;26.77;34.84
14293;BME280;62290;59.420;17.842;2023-07-20T06:42:44;99830.72;;;26.76;35.24
14293;BME280;62290;59.420;17.842;2023-07-20T06:45:15;99833.94;;;26.80;35.01
14293;BME280;62290;59.420;17.842;2023-07-20T06:47:44;99832.91;;;26.81;34.88
14293;BME280;62290;59.420;17.842;2023-07-20T06:50:12;99828.16;;;26.83;35.07
14293;BME280;62290;59.420;17.842;2023-07-20T06:52:45;99832.56;;;26.84;34.72
14293;BME280;62290;59.420;17.842;2023-07-20T06:55:15;99826.81;;;26.87;35.01
14293;BME280;62290;59.420;17.842;2023-07-20T06:57:49;99831.03;;;26.89;34.84
14293;BME280;62290;59.420;17.842;2023-07-20T07:00:19;99830.66;;;26.92;34.74
14293;BME280;62290;59.420;17.842;2023-07-20T07:02:47;99837.41;;;26.96;35.01
14293;BME280;62290;59.420;17.842;2023-07-20T07:05:17;99834.53;;;26.98;34.65
14293;BME280;62290;59.420;17.842;2023-07-20T07:07:48;99830.78;;;26.99;34.68
14293;BME280;62290;59.420;17.842;2023-07-20T07:10:16;99826.03;;;27.01;34.98
14293;BME280;62290;59.420;17.842;2023-07-20T07:12:45;99834.16;;;27.01;34.77
14293;BME280;62290;59.420;17.842;2023-07-20T07:15:13;99824.38;;;27.00;34.81
14293;BME280;62290;59.420;17.842;2023-07-20T07:17:41;99826.41;;;26.98;34.76
14293;BME280;62290;59.420;17.842;2023-07-20T07:20:10;99828.44;;;26.96;34.92
14293;BME280;62290;59.420;17.842;2023-07-20T07:22:50;99828.44;;;26.96;34.82
14293;BME280;62290;59.420;17.842;2023-07-20T07:25:20;99829.63;;;26.93;34.79
14293;BME280;62290;59.420;17.842;2023-07-20T07:27:50;99830.47;;;26.94;34.72
14293;BME280;62290;59.420;17.842;2023-07-20T07:30:19;99826.28;;;26.91;34.84
14293;BME280;62290;59.420;17.842;2023-07-20T07:32:47;99833.38;;;26.92;34.80
14293;BME280;62290;59.420;17.842;2023-07-20T07:35:15;99824.59;;;26.90;34.98
14293;BME280;62290;59.420;17.842;2023-07-20T07:37:43;99823.75;;;26.90;34.85
14293;BME280;62290;59.420;17.842;2023-07-20T07:40:33;99825.81;;;26.88;35.10
14293;BME280;62290;59.420;17.842;2023-07-20T07:43:01;99828.50;;;26.88;34.79
14293;BME280;62290;59.420;17.842;2023-07-20T07:45:30;99832.03;;;26.88;35.18
14293;BME280;62290;59.420;17.842;2023-07-20T07:47:58;99824.75;;;26.89;34.93
14293;BME280;62290;59.420;17.842;2023-07-20T07:50:26;99823.75;;;26.90;34.74
14293;BME280;62290;59.420;17.842;2023-07-20T07:52:55;99819.19;;;26.90;34.81
14293;BME280;62290;59.420;17.842;2023-07-20T07:55:24;99820.88;;;26.91;34.76
14293;BME280;62290;59.420;17.842;2023-07-20T07:57:55;99825.06;;;26.94;34.87
14293;BME280;62290;59.420;17.842;2023-07-20T08:00:23;99824.22;;;26.93;34.75
14293;BME280;62290;59.420;17.842;2023-07-20T08:02:51;99824.72;;;26.97;35.05
14293;BME280;62290;59.420;17.842;2023-07-20T08:05:19;99819.31;;;26.97;34.84
14293;BME280;62290;59.420;17.842;2023-07-20T08:07:47;99824.38;;;27.00;34.77
14293;BME280;62290;59.420;17.842;2023-07-20T08:10:15;99830.44;;;27.02;35.00
14293;BME280;62290;59.420;17.842;2023-07-20T08:12:43;99828.25;;;27.06;34.64
14293;BME280;62290;59.420;17.842;2023-07-20T08:15:13;99825.84;;;27.11;34.47
14293;BME280;62290;59.420;17.842;2023-07-20T08:17:42;99813.88;;;27.05;34.67
14293;BME280;62290;59.420;17.842;2023-07-20T08:20:12;99811.66;;;27.09;34.40
14293;BME280;62290;59.420;17.842;2023-07-20T08:22:41;99822.25;;;27.18;34.68
14293;BME280;62290;59.420;17.842;2023-07-20T08:25:09;99804.06;;;27.04;34.34
14293;BME280;62290;59.420;17.842;2023-07-20T08:27:37;99824.59;;;27.21;34.42
14293;BME280;62290;59.420;17.842;2023-07-20T08:30:06;99819.84;;;27.23;34.19
14293;BME280;62290;59.420;17.842;2023-07-20T08:32:36;99823.41;;;27.24;34.39
14293;BME280;62290;59.420;17.842;2023-07-20T08:35:04;99825.25;;;27.23;34.52
14293;BME280;62290;59.420;17.842;2023-07-20T08:37:32;99828.16;;;27.22;34.29
14293;BME280;62290;59.420;17.842;2023-07-20T08:40:01;99830.34;;;27.18;34.39
14293;BME280;62290;59.420;17.842;2023-07-20T08:42:33;99816.19;;;27.16;34.34
14293;BME280;62290;59.420;17.842;2023-07-20T08:45:06;99818.03;;;27.16;34.59
14293;BME280;62290;59.420;17.842;2023-07-20T08:47:37;99823.59;;;27.14;34.48
14293;BME280;62290;59.420;17.842;2023-07-20T08:50:07;99815.03;;;27.11;34.27
14293;BME280;62290;59.420;17.842;2023-07-20T08:52:35;99825.31;;;27.15;34.18
14293;BME280;62290;59.420;17.842;2023-07-20T08:55:04;99822.78;;;27.14;34.59
14293;BME280;62290;59.420;17.842;2023-07-20T08:57:33;99822.59;;;27.15;34.27
14293;BME280;62290;59.420;17.842;2023-07-20T09:00:03;99821.09;;;27.13;34.49
14293;BME280;62290;59.420;17.842;2023-07-20T09:02:39;99802.41;;;27.03;34.57
14293;BME280;62290;59.420;17.842;2023-07-20T09:05:08;99823.13;;;27.11;34.38
14293;BME280;62290;59.420;17.842;2023-07-20T09:07:37;99818.94;;;27.08;34.67
14293;BME280;62290;59.420;17.842;2023-07-20T09:10:06;99819.09;;;27.07;34.32
14293;BME280;62290;59.420;17.842;2023-07-20T09:12:35;99829.25;;;27.05;34.57
14293;BME280;62290;59.420;17.842;2023-07-20T09:15:04;99826.72;;;27.03;34.77
14293;BME280;62290;59.420;17.842;2023-07-20T09:17:32;99819.31;;;26.97;34.81
14293;BME280;62290;59.420;17.842;2023-07-20T09:20:03;99830.13;;;26.97;34.51
14293;BME280;62290;59.420;17.842;2023-07-20T09:22:38;99835.34;;;26.98;34.38
14293;BME280;62290;59.420;17.842;2023-07-20T09:25:11;99822.22;;;26.95;34.50
14293;BME280;62290;59.420;17.842;2023-07-20T09:27:43;99833.50;;;26.99;34.36
14293;BME280;62290;59.420;17.842;2023-07-20T09:30:11;99831.84;;;26.98;34.57
14293;BME280;62290;59.420;17.842;2023-07-20T09:32:45;99820.31;;;26.96;34.65
14293;BME280;62290;59.420;17.842;2023-07-20T09:35:20;99832.66;;;26.98;34.47
14293;BME280;62290;59.420;17.842;2023-07-20T09:37:59;99807.34;;;26.91;34.56
14293;BME280;62290;59.420;17.842;2023-07-20T09:40:30;99819.31;;;26.97;34.79
14293;BME280;62290;59.420;17.842;2023-07-20T09:43:08;99826.59;;;26.96;34.42
14293;BME280;62290;59.420;17.842;2023-07-20T09:45:40;99832.19;;;26.95;34.50
14293;BME280;62290;59.420;17.842;2023-07-20T09:48:11;99827.97;;;26.92;34.81
14293;BME280;62290;59.420;17.842;2023-07-20T09:50:49;99833.38;;;26.92;34.62
14293;BME280;62290;59.420;17.842;2023-07-20T09:53:18;99831.03;;;26.89;34.71
14293;BME280;62290;59.420;17.842;2023-07-20T09:55:47;99832.03;;;26.88;34.60
14293;BME280;62290;59.420;17.842;2023-07-20T09:58:17;99830.38;;;26.87;34.93
14293;BME280;62290;59.420;17.842;2023-07-20T10:00:46;99828.66;;;26.86;34.60
14293;BME280;62290;59.420;17.842;2023-07-20T10:03:20;99818.06;;;26.77;34.75
14293;BME280;62290;59.420;17.842;2023-07-20T10:06:06;99802.50;;;26.71;34.57
14293;BME280;62290;59.420;17.842;2023-07-20T10:08:38;99828.00;;;26.84;35.01
14293;BME280;62290;59.420;17.842;2023-07-20T10:11:10;99796.25;;;26.70;34.98
14293;BME280;62290;59.420;17.842;2023-07-20T10:13:41;99821.56;;;26.85;35.04
14293;BME280;62290;59.420;17.842;2023-07-20T10:16:14;99819.91;;;26.84;34.61
14293;BME280;62290;59.420;17.842;2023-07-20T10:18:49;99826.16;;;26.85;34.79
14293;BME280;62290;59.420;17.842;2023-07-20T10:21:21;99832.38;;;26.85;35.03
14293;BME280;62290;59.420;17.842;2023-07-20T10:23:54;99822.59;;;26.84;34.63
14293;BME280;62290;59.420;17.842;2023-07-20T10:26:25;99823.44;;;26.85;34.98
14293;BME280;62290;59.420;17.842;2023-07-20T10:28:54;99824.44;;;26.84;34.72
14293;BME280;62290;59.420;17.842;2023-07-20T10:31:22;99819.91;;;26.84;35.04
14293;BME280;62290;59.420;17.842;2023-07-20T10:33:51;99813.63;;;26.84;34.46
14293;BME280;62290;59.420;17.842;2023-07-20T10:36:26;99804.53;;;26.85;34.75
14293;BME280;62290;59.420;17.842;2023-07-20T10:38:58;99804.69;;;26.83;34.65
14293;BME280;62290;59.420;17.842;2023-07-20T10:41:29;99806.38;;;26.84;34.99
14293;BME280;62290;59.420;17.842;2023-07-20T10:43:58;99812.63;;;26.85;35.00
14293;BME280;62290;59.420;17.842;2023-07-20T10:46:43;99815.50;;;26.83;34.71
14293;BME280;62290;59.420;17.842;2023-07-20T10:49:13;99811.94;;;26.83;34.86
14293;BME280;62290;59.420;17.842;2023-07-20T10:51:45;99815.69;;;26.82;34.62
14293;BME280;62290;59.420;17.842;2023-07-20T10:54:33;99809.44;;;26.81;34.84
14293;BME280;62290;59.420;17.842;2023-07-20T10:57:24;99805.88;;;26.81;34.92
14293;BME280;62290;59.420;17.842;2023-07-20T11:00:07;99799.47;;;26.82;34.75
14293;BME280;62290;59.420;17.842;2023-07-20T11:02:46;99800.47;;;26.81;34.53
14293;BME280;62290;59.420;17.842;2023-07-20T11:05:41;99800.47;;;26.81;34.89
14293;BME280;62290;59.420;17.842;2023-07-20T11:08:12;99798.81;;;26.80;34.69
14293;BME280;62290;59.420;17.842;2023-07-20T11:10:40;99793.41;;;26.80;34.98
14293;BME280;62290;59.420;17.842;2023-07-20T11:13:19;99793.22;;;26.81;34.68
14293;BME280;62290;59.420;17.842;2023-07-20T11:16:00;99796.09;;;26.80;34.80
14293;BME280;62290;59.420;17.842;2023-07-20T11:18:29;99795.06;;;26.81;34.75
14293;BME280;62290;59.420;17.842;2023-07-20T11:20:58;99791.50;;;26.80;35.02
14293;BME280;62290;59.420;17.842;2023-07-20T11:23:29;99794.06;;;26.82;34.71
14293;BME280;62290;59.420;17.842;2023-07-20T11:25:59;99793.22;;;26.81;34.91
14293;BME280;62290;59.420;17.842;2023-07-20T11:28:30;99794.06;;;26.82;34.92
14293;BME280;62290;59.420;17.842;2023-07-20T11:30:58;99785.28;;;26.80;34.67
14293;BME280;62290;59.420;17.842;2023-07-20T11:33:26;99799.47;;;26.82;34.68
14293;BME280;62290;59.420;17.842;2023-07-20T11:35:54;99795.06;;;26.81;34.86
14293;BME280;62290;59.420;17.842;2023-07-20T11:38:23;99784.44;;;26.71;34.78
14293;BME280;62290;59.420;17.842;2023-07-20T11:40:53;99800.47;;;26.81;34.87
14293;BME280;62290;59.420;17.842;2023-07-20T11:43:21;99801.31;;;26.81;34.80
14293;BME280;62290;59.420;17.842;2023-07-20T11:45:52;99804.88;;;26.82;34.77
14293;BME280;62290;59.420;17.842;2023-07-20T11:48:21;99794.06;;;26.82;34.56
14293;BME280;62290;59.420;17.842;2023-07-20T11:50:49;99803.19;;;26.81;34.87
14293;BME280;62290;59.420;17.842;2023-07-20T11:53:17;99798.63;;;26.81;34.45
14293;BME280;62290;59.420;17.842;2023-07-20T11:55:45;99799.47;;;26.82;34.51
14293;BME280;62290;59.420;17.842;2023-07-20T11:58:15;99797.78;;;26.81;34.83
14293;BME280;62290;59.420;17.842;2023-07-20T12:00:44;99806.91;;;26.80;34.68
14293;BME280;62290;59.420;17.842;2023-07-20T12:03:12;99808.59;;;26.81;34.60
14293;BME280;62290;59.420;17.842;2023-07-20T12:05:40;99813.81;;;26.82;34.40
14293;BME280;62290;59.420;17.842;2023-07-20T12:08:27;99817.53;;;26.81;34.66
14293;BME280;62290;59.420;17.842;2023-07-20T12:10:55;99809.44;;;26.81;34.38
14293;BME280;62290;59.420;17.842;2023-07-20T12:13:35;99814.34;;;26.78;34.44
14293;BME280;62290;59.420;17.842;2023-07-20T12:16:09;99817.34;;;26.83;34.71
14293;BME280;62290;59.420;17.842;2023-07-20T12:18:38;99818.38;;;26.82;34.39
14293;BME280;62290;59.420;17.842;2023-07-20T12:21:06;99818.38;;;26.82;34.42
14293;BME280;62290;59.420;17.842;2023-07-20T12:23:36;99816.53;;;26.82;34.75
14293;BME280;62290;59.420;17.842;2023-07-20T12:26:06;99809.78;;;26.78;34.62
14293;BME280;62290;59.420;17.842;2023-07-20T12:28:40;99821.09;;;26.82;34.47
14293;BME280;62290;59.420;17.842;2023-07-20T12:31:09;99811.47;;;26.79;34.37
14293;BME280;62290;59.420;17.842;2023-07-20T12:33:37;99816.03;;;26.79;34.30
14293;BME280;62290;59.420;17.842;2023-07-20T12:36:05;99808.78;;;26.79;34.46
14293;BME280;62290;59.420;17.842;2023-07-20T12:38:34;99810.63;;;26.79;34.28
14293;BME280;62290;59.420;17.842;2023-07-20T12:41:02;99817.03;;;26.78;34.70
14293;BME280;62290;59.420;17.842;2023-07-20T12:43:31;99815.19;;;26.78;34.69
14293;BME280;62290;59.420;17.842;2023-07-20T12:46:01;99814.34;;;26.78;34.68
14293;BME280;62290;59.420;17.842;2023-07-20T12:48:29;99811.63;;;26.78;34.68
14293;BME280;62290;59.420;17.842;2023-07-20T12:50:58;99815.38;;;26.77;34.61
14293;BME280;62290;59.420;17.842;2023-07-20T12:53:26;99810.28;;;26.74;34.34
14293;BME280;62290;59.420;17.842;2023-07-20T12:55:54;99816.34;;;26.76;34.66
14293;BME280;62290;59.420;17.842;2023-07-20T12:58:22;99807.56;;;26.74;34.32
14293;BME280;62290;59.420;17.842;2023-07-20T13:00:50;99819.06;;;26.76;34.76
14293;BME280;62290;59.420;17.842;2023-07-20T13:03:20;99812.97;;;26.74;34.42
14293;BME280;62290;59.420;17.842;2023-07-20T13:05:51;99813.84;;;26.74;34.58